Time;durP1;ratioP1;P1;durP2;ratioP2;P2;SDS_P1;SDS_P2;PMS_P1;PMS_P2;Temp;Humidity;BMP_temperature;BMP_pressure;BME280_temperature;BME280_humidity;BME280_pressure;Samples;Min_cycle;Max_cycle;Signal;HPM_P1;HPM_P2
2022/09/30 00:00:32;;;;;;;35.20;14.30;;;;;;;5.31;85.80;99547.64;105828;1279;25459;-76
2022/09/30 00:03:24;;;;;;;30.90;12.70;;;;;;;5.32;85.78;99554.73;105821;1278;22558;-74
2022/09/30 00:06:03;;;;;;;31.10;13.30;;;;;;;5.30;85.72;99554.95;105849;1279;24307;-76
2022/09/30 00:08:35;;;;;;;34.50;14.90;;;;;;;5.27;85.65;99553.99;105819;1279;22556;-75
2022/09/30 00:11:08;;;;;;;30.20;12.90;;;;;;;5.25;85.63;99553.23;105821;1279;22574;-76
2022/09/30 00:13:40;;;;;;;32.10;14.00;;;;;;;5.22;85.67;99557.98;105808;1279;22558;-75
2022/09/30 00:16:13;;;;;;;31.10;13.10;;;;;;;5.20;85.67;99563.27;105946;1279;22537;-75
2022/09/30 00:18:45;;;;;;;29.90;13.90;;;;;;;5.20;85.69;99563.00;105946;1278;22729;-75
2022/09/30 00:21:17;;;;;;;32.70;14.70;;;;;;;5.18;85.71;99560.14;105821;1279;24449;-75
2022/09/30 00:23:48;;;;;;;33.20;14.50;;;;;;;5.16;85.72;99563.64;105793;1279;23940;-74
2022/09/30 00:26:21;;;;;;;33.20;14.90;;;;;;;5.13;85.77;99567.84;105771;1279;22544;-75
2022/09/30 00:28:53;;;;;;;34.20;13.30;;;;;;;5.12;85.87;99570.27;105820;1279;22569;-75
2022/09/30 00:31:27;;;;;;;36.20;14.20;;;;;;;5.11;85.93;99572.23;105907;1279;22562;-76
2022/09/30 00:34:07;;;;;;;34.80;14.90;;;;;;;5.10;86.11;99577.09;105853;1279;25429;-74
2022/09/30 00:36:43;;;;;;;36.20;15.10;;;;;;;5.09;86.46;99584.86;105797;1279;22639;-75
2022/09/30 00:39:17;;;;;;;36.70;15.00;;;;;;;5.11;86.59;99585.72;105781;1278;25533;-73
2022/09/30 00:41:51;;;;;;;37.40;15.40;;;;;;;5.12;86.83;99588.04;105875;1278;24210;-75
2022/09/30 00:44:56;;;;;;;37.00;15.80;;;;;;;5.15;86.95;99585.80;105864;1279;25569;-77
2022/09/30 00:47:47;;;;;;;32.20;14.70;;;;;;;5.16;87.13;99593.33;105832;1279;26018;-74
2022/09/30 00:50:33;;;;;;;36.00;15.20;;;;;;;5.19;87.33;99594.17;105806;1279;26649;-75
2022/09/30 00:53:14;;;;;;;34.10;16.30;;;;;;;5.22;87.59;99591.69;105830;1279;22495;-75
2022/09/30 00:55:52;;;;;;;35.90;17.50;;;;;;;5.24;87.72;99593.01;105781;1279;23589;-74
2022/09/30 00:58:29;;;;;;;33.20;15.20;;;;;;;5.26;87.66;99598.39;105846;1279;25458;-77
2022/09/30 01:01:02;;;;;;;34.20;14.30;;;;;;;5.28;87.87;99600.73;106043;1278;25263;-75
2022/09/30 01:03:37;;;;;;;36.40;16.50;;;;;;;5.30;87.90;99601.05;105770;1279;22724;-75
2022/09/30 01:06:09;;;;;;;35.90;16.10;;;;;;;5.33;88.00;99600.38;105845;1279;24303;-75
2022/09/30 01:08:41;;;;;;;30.90;13.90;;;;;;;5.36;88.01;99606.05;105774;1279;22710;-75
2022/09/30 01:11:13;;;;;;;34.00;15.40;;;;;;;5.38;88.28;99606.58;105832;1279;25524;-75
2022/09/30 01:13:46;;;;;;;31.10;15.50;;;;;;;5.40;88.47;99606.16;105793;1279;25575;-75
2022/09/30 01:16:40;;;;;;;34.50;15.50;;;;;;;5.42;88.46;99610.82;105835;1279;22998;-76
2022/09/30 01:19:32;;;;;;;32.90;14.10;;;;;;;5.45;88.65;99602.08;105790;1279;22544;-75
2022/09/30 01:22:13;;;;;;;33.70;14.20;;;;;;;5.48;88.77;99600.91;105790;1279;22583;-76
2022/09/30 01:25:16;;;;;;;30.50;14.30;;;;;;;5.51;88.98;99602.06;105814;1279;23090;-75
2022/09/30 01:28:17;;;;;;;32.00;14.10;;;;;;;5.54;89.11;99597.42;105816;1279;24355;-74
2022/09/30 01:31:04;;;;;;;31.60;13.90;;;;;;;5.57;89.19;99598.08;105524;1282;25817;-74
2022/09/30 01:33:45;;;;;;;30.20;15.00;;;;;;;5.61;89.40;99604.16;105512;1282;26059;-74
2022/09/30 01:36:38;;;;;;;32.00;13.90;;;;;;;5.64;89.60;99603.70;105534;1282;25349;-75
2022/09/30 01:39:22;;;;;;;31.70;15.10;;;;;;;5.67;89.76;99597.64;105351;1282;22742;-75
2022/09/30 01:41:59;;;;;;;29.90;13.90;;;;;;;5.71;89.80;99595.98;105496;1282;24402;-75
2022/09/30 01:44:37;;;;;;;33.50;15.60;;;;;;;5.74;90.00;99597.19;105510;1282;22844;-75
2022/09/30 01:47:15;;;;;;;34.30;15.20;;;;;;;5.80;90.52;99593.39;105515;1282;22552;-75
2022/09/30 01:49:50;;;;;;;38.00;15.70;;;;;;;5.86;90.77;99593.33;105544;1282;22547;-73
2022/09/30 01:52:27;;;;;;;35.80;14.80;;;;;;;5.90;90.83;99599.05;105454;1282;25332;-76
2022/09/30 01:55:03;;;;;;;31.80;15.00;;;;;;;5.94;90.81;99600.81;105464;1282;25492;-76
2022/09/30 01:57:43;;;;;;;30.80;15.10;;;;;;;5.97;90.71;99599.84;105518;1282;24362;-76
2022/09/30 02:00:16;;;;;;;32.10;14.90;;;;;;;5.99;90.68;99600.64;105552;1282;22742;-75
2022/09/30 02:02:52;;;;;;;35.20;15.50;;;;;;;6.01;90.64;99595.41;105552;1282;24307;-77
2022/09/30 02:05:28;;;;;;;32.50;16.10;;;;;;;6.04;90.47;99597.04;105415;1282;22557;-75
2022/09/30 02:08:04;;;;;;;30.80;14.80;;;;;;;6.07;90.65;99599.98;105691;1281;24111;-75
2022/09/30 02:10:41;;;;;;;34.90;16.20;;;;;;;6.07;90.74;99598.08;105815;1279;22689;-74
2022/09/30 02:13:19;;;;;;;31.50;14.70;;;;;;;6.07;90.83;99600.27;105861;1279;24235;-76
2022/09/30 02:15:57;;;;;;;32.10;15.30;;;;;;;6.09;90.87;99599.49;105806;1279;25406;-75
2022/09/30 02:18:39;;;;;;;33.00;15.00;;;;;;;6.09;90.93;99595.20;105752;1279;25424;-75
2022/09/30 02:21:13;;;;;;;30.40;14.80;;;;;;;6.12;91.54;99592.63;105788;1279;22678;-76
2022/09/30 02:23:47;;;;;;;33.60;14.70;;;;;;;6.14;91.50;99594.20;105767;1281;25528;-76
2022/09/30 02:26:23;;;;;;;31.80;14.60;;;;;;;6.15;91.67;99589.73;105832;1279;25491;-76
2022/09/30 02:29:03;;;;;;;37.50;15.30;;;;;;;6.18;91.77;99590.22;105789;1281;22540;-75
2022/09/30 02:31:38;;;;;;;33.50;16.10;;;;;;;6.21;91.81;99592.67;105779;1279;25399;-74
2022/09/30 02:34:13;;;;;;;33.10;14.90;;;;;;;6.25;92.05;99600.16;105899;1279;24231;-75
2022/09/30 02:36:48;;;;;;;32.30;15.30;;;;;;;6.29;91.90;99597.40;105892;1281;25399;-75
2022/09/30 02:39:27;;;;;;;33.20;15.90;;;;;;;6.31;92.02;99593.48;105835;1281;22583;-75
2022/09/30 02:42:05;;;;;;;36.60;17.00;;;;;;;6.34;92.30;99590.19;105729;1281;23058;-76
2022/09/30 02:44:37;;;;;;;37.60;17.90;;;;;;;6.38;92.40;99595.62;105822;1281;22920;-76
2022/09/30 02:47:16;;;;;;;30.60;15.20;;;;;;;6.42;92.41;99602.27;105794;1279;24542;-75
2022/09/30 02:49:53;;;;;;;34.20;16.60;;;;;;;6.44;92.37;99600.56;105784;1279;25308;-75
2022/09/30 02:52:32;;;;;;;34.00;17.10;;;;;;;6.47;92.30;99598.38;105889;1279;24229;-75
2022/09/30 02:55:19;;;;;;;32.60;17.00;;;;;;;6.50;92.44;99595.61;105864;1277;22550;-74
2022/09/30 02:58:01;;;;;;;32.10;16.00;;;;;;;6.54;92.57;99598.44;105807;1281;26610;-75
2022/09/30 03:00:33;;;;;;;34.80;16.60;;;;;;;6.57;92.38;99604.34;105834;1281;24304;-75
2022/09/30 03:03:10;;;;;;;33.40;16.10;;;;;;;6.60;92.38;99611.02;105730;1281;22532;-76
2022/09/30 03:05:41;;;;;;;34.60;18.10;;;;;;;6.62;92.59;99614.31;105861;1280;24299;-76
2022/09/30 03:08:12;;;;;;;37.10;18.50;;;;;;;6.64;92.64;99622.70;105825;1279;22541;-76
2022/09/30 03:10:45;;;;;;;36.30;18.30;;;;;;;6.66;92.84;99627.27;105826;1279;22576;-76
2022/09/30 03:13:29;;;;;;;35.60;16.90;;;;;;;6.69;92.86;99631.42;105816;1281;24359;-75
2022/09/30 03:16:14;;;;;;;33.70;17.30;;;;;;;6.71;92.72;99630.78;105785;1279;26643;-75
2022/09/30 03:19:06;;;;;;;33.40;16.50;;;;;;;6.73;92.84;99630.61;105774;1281;22668;-75
2022/09/30 03:21:52;;;;;;;32.10;16.20;;;;;;;6.75;92.98;99632.48;105684;1281;26106;-75
2022/09/30 03:24:43;;;;;;;32.90;15.80;;;;;;;6.77;92.84;99625.81;105806;1281;22567;-76
2022/09/30 03:27:15;;;;;;;;;;;;;;;6.78;92.87;99630.35;105802;1281;22544;-77
2022/09/30 03:29:52;;;;;;;38.50;16.70;;;;;;;6.79;93.11;99630.70;105752;1279;24991;-74
2022/09/30 03:32:38;;;;;;;32.50;16.50;;;;;;;6.80;93.04;99634.23;105799;1281;22564;-75
2022/09/30 03:35:17;;;;;;;36.00;16.80;;;;;;;6.81;93.17;99643.43;105779;1281;25245;-76
2022/09/30 03:37:58;;;;;;;32.40;16.10;;;;;;;6.82;93.31;99650.98;105919;1281;24227;-78
2022/09/30 03:40:37;;;;;;;33.50;17.10;;;;;;;6.84;93.17;99653.60;105905;1278;22880;-75
2022/09/30 03:43:19;;;;;;;32.70;16.60;;;;;;;6.85;93.16;99651.90;105857;1281;22625;-75
2022/09/30 03:45:55;;;;;;;32.10;15.70;;;;;;;6.86;93.17;99651.38;105808;1281;23399;-76
2022/09/30 03:48:29;;;;;;;36.10;17.00;;;;;;;6.87;93.18;99655.02;105864;1281;22555;-74
2022/09/30 03:51:01;;;;;;;32.70;16.90;;;;;;;6.87;93.09;99651.55;105811;1281;22709;-75
2022/09/30 03:53:37;;;;;;;38.10;17.20;;;;;;;6.88;93.10;99648.03;106014;1281;24433;-75
2022/09/30 03:56:09;;;;;;;38.90;19.10;;;;;;;6.90;93.14;99650.55;105832;1281;23315;-75
2022/09/30 03:58:44;;;;;;;34.20;16.60;;;;;;;6.92;93.41;99652.07;105916;1281;25239;-75
2022/09/30 04:01:22;;;;;;;37.40;17.60;;;;;;;6.94;93.35;99655.74;105829;1281;25314;-77
2022/09/30 04:03:54;;;;;;;41.10;20.50;;;;;;;6.95;93.34;99652.14;106006;1279;25562;-77
2022/09/30 04:06:26;;;;;;;41.00;19.00;;;;;;;6.97;93.39;99649.50;105890;1281;22578;-75
2022/09/30 04:08:57;;;;;;;35.70;18.50;;;;;;;6.99;93.51;99651.23;105750;1279;22703;-77
2022/09/30 04:11:29;;;;;;;43.00;19.50;;;;;;;7.00;93.59;99657.11;105813;1279;26309;-76
2022/09/30 04:14:00;;;;;;;40.10;19.50;;;;;;;7.03;93.52;99661.38;105761;1281;23903;-76
2022/09/30 04:16:33;;;;;;;38.80;19.70;;;;;;;7.02;93.62;99653.52;105858;1277;23453;-75
2022/09/30 04:19:04;;;;;;;38.70;19.00;;;;;;;7.03;93.53;99650.90;105848;1279;22712;-76
2022/09/30 04:21:35;;;;;;;37.10;18.10;;;;;;;7.03;93.57;99651.59;105837;1278;22569;-74
2022/09/30 04:24:07;;;;;;;37.20;18.20;;;;;;;7.04;93.70;99651.09;105997;1281;25300;-74
2022/09/30 04:26:38;;;;;;;38.10;18.50;;;;;;;7.05;93.68;99644.45;105940;1281;22550;-73
2022/09/30 04:29:09;;;;;;;39.00;19.80;;;;;;;7.06;93.65;99645.43;106124;1279;25220;-73
2022/09/30 04:31:40;;;;;;;39.50;19.30;;;;;;;7.06;93.75;99650.23;106554;1278;22687;-73
2022/09/30 04:34:11;;;;;;;38.70;18.90;;;;;;;7.08;93.75;99653.41;107167;1279;22471;-74
2022/09/30 04:36:43;;;;;;;39.00;19.90;;;;;;;7.09;93.81;99649.34;106739;1278;22623;-75
2022/09/30 04:39:14;;;;;;;47.50;21.00;;;;;;;7.10;93.82;99648.01;106096;1279;22536;-73
2022/09/30 04:41:45;;;;;;;40.40;20.20;;;;;;;7.10;93.80;99650.44;105956;1281;22560;-73
2022/09/30 04:44:16;;;;;;;35.60;18.10;;;;;;;7.11;94.00;99652.88;105858;1281;22601;-74
2022/09/30 04:46:48;;;;;;;33.40;16.70;;;;;;;7.12;93.95;99650.06;105854;1278;24384;-73
2022/09/30 04:49:19;;;;;;;38.90;18.60;;;;;;;7.13;93.84;99652.15;105753;1281;22653;-74
2022/09/30 04:51:50;;;;;;;39.50;21.80;;;;;;;7.13;94.05;99658.08;105794;1277;22558;-73
2022/09/30 04:54:22;;;;;;;45.50;24.10;;;;;;;7.14;94.28;99664.05;105810;1279;25482;-71
2022/09/30 04:56:53;;;;;;;52.10;28.80;;;;;;;7.16;94.03;99666.67;105878;1281;25303;-70
2022/09/30 04:59:24;;;;;;;53.20;28.10;;;;;;;7.18;94.09;99667.23;105848;1279;22556;-72
2022/09/30 05:01:56;;;;;;;48.20;27.20;;;;;;;7.19;94.14;99668.41;105811;1279;22566;-73
2022/09/30 05:04:27;;;;;;;47.00;26.70;;;;;;;7.22;94.15;99680.89;105791;1281;22654;-72
2022/09/30 05:06:58;;;;;;;48.00;25.20;;;;;;;7.23;94.18;99685.10;105803;1279;24408;-71
2022/09/30 05:09:29;;;;;;;48.50;24.10;;;;;;;7.26;94.46;99692.80;105717;1279;22667;-71
2022/09/30 05:12:25;;;;;;;45.70;25.20;;;;;;;7.28;94.29;99692.10;105815;1279;26677;-71
2022/09/30 05:14:56;;;;;;;53.30;27.40;;;;;;;7.30;94.35;99697.08;105750;1279;25395;-70
2022/09/30 05:17:29;;;;;;;59.30;30.90;;;;;;;7.32;94.48;99704.03;105784;1278;22651;-72
2022/09/30 05:20:01;;;;;;;60.80;31.00;;;;;;;7.33;94.52;99708.56;105880;1278;24804;-73
2022/09/30 05:22:32;;;;;;;59.70;30.50;;;;;;;7.36;94.64;99709.98;105723;1279;26020;-72
2022/09/30 05:25:03;;;;;;;51.60;25.80;;;;;;;7.39;94.70;99720.80;105806;1277;25382;-70
2022/09/30 05:27:36;;;;;;;50.30;24.30;;;;;;;7.42;94.82;99720.98;105744;1279;22626;-72
2022/09/30 05:30:09;;;;;;;43.00;23.00;;;;;;;7.44;95.00;99725.77;105773;1279;22734;-72
2022/09/30 05:32:40;;;;;;;44.60;21.70;;;;;;;7.46;95.10;99730.52;105900;1281;22560;-72
2022/09/30 05:35:11;;;;;;;42.30;21.60;;;;;;;7.47;95.00;99731.80;105878;1279;24427;-71
2022/09/30 05:37:42;;;;;;;41.30;19.40;;;;;;;7.48;95.05;99737.23;105820;1278;23424;-71
2022/09/30 05:40:13;;;;;;;40.90;19.90;;;;;;;7.50;95.17;99734.69;105794;1279;26655;-71
2022/09/30 05:42:45;;;;;;;38.30;18.90;;;;;;;7.50;95.14;99736.20;105783;1279;25261;-70
2022/09/30 05:45:17;;;;;;;38.60;18.50;;;;;;;7.51;95.20;99735.98;105757;1281;22553;-72
2022/09/30 05:47:54;;;;;;;40.60;20.30;;;;;;;7.54;95.33;99743.27;105776;1279;24376;-71
2022/09/30 05:50:26;;;;;;;39.00;20.20;;;;;;;7.58;95.48;99747.10;105792;1278;26581;-71
2022/09/30 05:52:57;;;;;;;41.60;20.60;;;;;;;7.61;95.44;99749.05;105860;1279;25347;-72
2022/09/30 05:55:28;;;;;;;42.80;20.30;;;;;;;7.63;95.54;99746.98;105706;1279;24242;-70
2022/09/30 05:58:00;;;;;;;44.60;20.70;;;;;;;7.66;95.53;99747.29;105749;1279;22541;-71
2022/09/30 06:00:31;;;;;;;40.90;20.30;;;;;;;7.70;95.49;99745.45;105770;1279;22607;-71
2022/09/30 06:03:02;;;;;;;44.20;20.30;;;;;;;7.73;95.82;99741.58;105758;1279;22630;-71
2022/09/30 06:05:33;;;;;;;44.90;21.10;;;;;;;7.77;95.66;99745.16;105783;1279;25253;-71
2022/09/30 06:08:06;;;;;;;37.60;18.90;;;;;;;7.82;95.91;99745.52;105712;1279;25416;-71
2022/09/30 06:10:41;;;;;;;44.10;21.90;;;;;;;7.86;95.62;99754.04;105781;1277;22993;-72
2022/09/30 06:13:12;;;;;;;36.50;20.10;;;;;;;7.90;95.62;99759.79;105861;1279;24427;-71
2022/09/30 06:15:43;;;;;;;44.80;22.60;;;;;;;7.94;95.84;99764.67;105773;1279;22608;-71
2022/09/30 06:18:16;;;;;;;46.10;22.40;;;;;;;7.97;95.72;99763.17;105760;1278;25648;-71
2022/09/30 06:20:47;;;;;;;42.40;21.30;;;;;;;7.99;95.68;99773.23;105889;1279;25396;-71
2022/09/30 06:23:18;;;;;;;43.40;21.40;;;;;;;8.00;95.69;99776.90;105730;1279;22735;-71
2022/09/30 06:25:51;;;;;;;35.70;19.60;;;;;;;8.01;95.65;99779.70;105759;1279;25455;-71
2022/09/30 06:28:24;;;;;;;40.50;20.20;;;;;;;8.03;95.65;99780.24;105809;1278;24678;-71
2022/09/30 06:30:55;;;;;;;39.50;20.50;;;;;;;8.05;95.73;99787.27;105900;1278;22587;-72
2022/09/30 06:33:26;;;;;;;39.30;19.10;;;;;;;8.09;95.81;99785.23;105857;1279;22601;-72
2022/09/30 06:35:57;;;;;;;38.40;19.30;;;;;;;8.12;95.84;99787.27;105961;1279;22572;-72
2022/09/30 06:38:28;;;;;;;41.80;21.50;;;;;;;8.15;95.79;99786.06;106064;1279;24207;-71
2022/09/30 06:41:01;;;;;;;37.50;20.80;;;;;;;8.19;95.83;99789.13;106566;1279;22712;-72
2022/09/30 06:43:32;;;;;;;41.90;21.50;;;;;;;8.23;95.86;99788.80;106843;1278;23957;-70
2022/09/30 06:46:03;;;;;;;44.20;22.10;;;;;;;8.25;95.85;99793.55;106301;1279;22590;-71
2022/09/30 06:48:34;;;;;;;41.10;19.90;;;;;;;8.27;96.02;99796.55;105758;1279;22781;-73
2022/09/30 06:51:08;;;;;;;39.30;20.50;;;;;;;8.29;95.82;99800.24;105762;1278;24242;-71
2022/09/30 06:53:40;;;;;;;35.70;19.60;;;;;;;8.34;95.83;99805.91;105744;1278;22556;-72
2022/09/30 06:56:11;;;;;;;39.10;19.00;;;;;;;8.36;95.83;99806.40;105734;1279;25408;-70
2022/09/30 06:58:44;;;;;;;37.60;20.30;;;;;;;8.39;95.85;99806.21;105741;1277;24248;-71
2022/09/30 07:01:15;;;;;;;40.40;20.50;;;;;;;8.42;96.03;99807.13;105762;1278;23476;-71
2022/09/30 07:03:48;;;;;;;41.00;20.70;;;;;;;8.45;95.95;99808.35;105756;1278;22698;-70
2022/09/30 07:06:19;;;;;;;38.40;20.90;;;;;;;8.48;96.07;99809.55;106062;1278;25208;-71
2022/09/30 07:08:51;;;;;;;40.70;21.40;;;;;;;8.49;95.93;99813.21;105748;1279;22786;-73
2022/09/30 07:11:23;;;;;;;42.90;21.40;;;;;;;8.52;96.11;99813.65;105770;1278;22540;-72
2022/09/30 07:13:54;;;;;;;38.50;21.90;;;;;;;8.57;96.19;99817.77;105777;1279;22553;-72
2022/09/30 07:16:26;;;;;;;40.60;20.60;;;;;;;8.61;96.12;99814.77;105788;1279;24333;-71
2022/09/30 07:18:58;;;;;;;42.10;20.30;;;;;;;8.65;96.13;99818.63;105774;1279;24569;-71
2022/09/30 07:21:30;;;;;;;39.70;19.40;;;;;;;8.65;95.89;99817.73;105825;1279;26527;-71
2022/09/30 07:24:01;;;;;;;39.30;18.90;;;;;;;8.66;95.86;99820.37;105785;1279;22816;-71
2022/09/30 07:26:32;;;;;;;38.70;21.80;;;;;;;8.68;95.89;99823.85;105740;1279;23115;-72
2022/09/30 07:29:06;;;;;;;35.60;19.80;;;;;;;8.72;95.89;99826.66;105761;1278;22540;-71
2022/09/30 07:31:38;;;;;;;43.50;21.60;;;;;;;8.77;96.00;99827.06;105728;1279;23978;-72
2022/09/30 07:34:11;;;;;;;42.60;23.60;;;;;;;8.81;96.08;99833.92;105777;1278;22708;-72
2022/09/30 07:36:42;;;;;;;48.80;26.50;;;;;;;8.85;96.02;99837.91;105795;1279;22565;-72
2022/09/30 07:39:13;;;;;;;51.60;26.50;;;;;;;8.88;95.92;99846.67;105798;1278;25501;-71
2022/09/30 07:41:45;;;;;;;46.10;25.00;;;;;;;8.92;95.85;99853.59;105771;1279;25372;-72
2022/09/30 07:44:16;;;;;;;43.20;23.80;;;;;;;8.97;96.17;99854.33;105797;1279;25339;-70
2022/09/30 07:46:47;;;;;;;41.10;20.70;;;;;;;9.01;96.06;99855.55;105781;1279;24487;-72
2022/09/30 07:49:23;;;;;;;42.30;20.60;;;;;;;9.04;95.98;99856.02;105736;1279;25371;-71
2022/09/30 07:51:55;;;;;;;37.50;19.40;;;;;;;9.06;95.76;99858.44;105800;1278;22547;-71
2022/09/30 07:54:31;;;;;;;36.10;18.40;;;;;;;9.10;95.95;99859.27;105741;1279;23402;-71
2022/09/30 07:57:06;;;;;;;41.80;19.80;;;;;;;9.14;96.12;99857.52;105704;1281;22544;-71
2022/09/30 07:59:39;;;;;;;37.20;20.70;;;;;;;9.17;95.76;99860.01;105807;1279;22733;-71
2022/09/30 08:02:16;;;;;;;44.10;21.10;;;;;;;9.20;96.03;99863.02;105754;1279;22710;-71
2022/09/30 08:04:47;;;;;;;61.00;32.70;;;;;;;9.25;95.65;99864.27;105850;1278;24308;-71
2022/09/30 08:07:19;;;;;;;47.70;24.40;;;;;;;9.30;95.87;99866.16;105750;1278;23849;-71
2022/09/30 08:09:50;;;;;;;42.90;21.50;;;;;;;9.34;96.07;99864.83;105704;1279;25427;-71
2022/09/30 08:12:21;;;;;;;40.20;20.90;;;;;;;9.39;96.12;99866.38;105758;1279;22555;-71
2022/09/30 08:14:52;;;;;;;38.80;21.40;;;;;;;9.43;95.82;99864.89;105721;1279;25479;-72
2022/09/30 08:17:23;;;;;;;41.00;21.10;;;;;;;9.48;95.91;99869.08;105781;1279;25249;-72
2022/09/30 08:19:55;;;;;;;42.90;21.90;;;;;;;9.55;96.46;99869.15;105795;1279;25366;-73
2022/09/30 08:22:28;;;;;;;39.70;20.90;;;;;;;9.62;96.43;99871.60;105819;1279;22830;-72
2022/09/30 08:24:59;;;;;;;38.80;19.80;;;;;;;9.66;95.90;99872.02;105789;1279;24235;-72
2022/09/30 08:27:30;;;;;;;36.50;18.50;;;;;;;9.68;95.93;99868.10;105789;1279;22577;-71
2022/09/30 08:30:01;;;;;;;36.60;16.70;;;;;;;9.74;95.85;99877.21;105765;1279;24287;-71
2022/09/30 08:32:33;;;;;;;33.00;18.10;;;;;;;9.78;95.61;99880.73;105765;1277;25481;-71
2022/09/30 08:35:05;;;;;;;31.80;16.80;;;;;;;9.83;95.56;99881.73;105719;1279;22566;-71
2022/09/30 08:37:36;;;;;;;28.60;15.70;;;;;;;9.89;95.46;99887.04;105759;1279;22666;-70
2022/09/30 08:40:15;;;;;;;33.00;15.40;;;;;;;9.96;95.57;99888.67;105701;1278;22601;-71
2022/09/30 08:43:03;;;;;;;32.80;16.50;;;;;;;10.02;95.44;99889.43;105782;1278;22569;-71
2022/09/30 08:45:41;;;;;;;32.60;17.30;;;;;;;10.09;95.46;99888.69;105769;1279;22548;-72
2022/09/30 08:48:30;;;;;;;30.80;16.30;;;;;;;10.16;95.22;99891.15;105788;1279;23052;-71
2022/09/30 08:51:16;;;;;;;30.10;13.80;;;;;;;10.22;94.85;99895.95;105969;1278;23199;-71
2022/09/30 08:53:48;;;;;;;35.00;15.70;;;;;;;10.28;94.82;99890.45;105772;1278;24418;-72
2022/09/30 08:56:24;;;;;;;30.60;14.90;;;;;;;10.34;95.00;99890.24;105858;1278;22560;-71
2022/09/30 08:59:00;;;;;;;28.60;14.50;;;;;;;10.39;94.84;99892.64;105812;1278;25530;-73
2022/09/30 09:01:36;;;;;;;29.40;13.70;;;;;;;10.46;94.72;99886.25;105822;1279;24255;-73
2022/09/30 09:04:08;;;;;;;30.60;14.90;;;;;;;10.54;94.99;99887.84;105848;1279;24263;-73
2022/09/30 09:06:51;;;;;;;31.60;16.10;;;;;;;10.64;95.02;99893.29;105845;1279;22565;-73
2022/09/30 09:09:44;;;;;;;31.10;12.90;;;;;;;10.74;94.75;99893.66;105808;1279;25485;-72
2022/09/30 09:12:29;;;;;;;29.70;14.20;;;;;;;10.85;94.55;99897.72;105841;1278;25418;-71
2022/09/30 09:15:22;;;;;;;27.60;13.00;;;;;;;10.92;94.06;99898.38;105793;1279;22582;-71
2022/09/30 09:18:35;;;;;;;26.00;12.50;;;;;;;11.01;94.30;99902.33;105805;1278;22577;-71
2022/09/30 09:21:32;;;;;;;30.00;11.80;;;;;;;11.16;94.32;99909.92;105371;1284;25256;-71
2022/09/30 09:24:06;;;;;;;29.70;13.10;;;;;;;11.30;94.44;99910.67;105287;1284;22573;-71
2022/09/30 09:26:38;;;;;;;24.60;11.40;;;;;;;11.43;93.74;99913.41;105234;1284;24453;-72
2022/09/30 09:29:22;;;;;;;23.40;11.30;;;;;;;11.53;93.78;99917.17;105414;1284;24350;-71
2022/09/30 09:31:58;;;;;;;25.50;12.00;;;;;;;11.64;93.66;99913.92;105348;1284;22582;-72
2022/09/30 09:34:33;;;;;;;24.80;11.10;;;;;;;11.72;93.25;99915.30;105359;1284;24953;-71
2022/09/30 09:37:17;;;;;;;24.20;10.40;;;;;;;11.80;93.08;99913.53;105370;1284;25368;-71
2022/09/30 09:40:03;;;;;;;21.20;9.90;;;;;;;11.87;92.98;99914.10;105316;1284;22691;-71
2022/09/30 09:42:49;;;;;;;23.70;9.90;;;;;;;11.97;93.03;99911.45;105275;1284;25515;-71
2022/09/30 09:45:29;;;;;;;23.00;10.90;;;;;;;12.09;93.29;99909.65;105323;1284;23063;-71
2022/09/30 09:48:00;;;;;;;26.00;10.40;;;;;;;12.20;93.20;99913.00;105352;1284;22622;-71
2022/09/30 09:50:40;;;;;;;17.80;8.30;;;;;;;12.30;92.98;99911.17;105325;1284;25425;-71
2022/09/30 09:53:28;;;;;;;21.00;10.60;;;;;;;12.38;92.46;99910.27;105434;1284;25483;-71
2022/09/30 09:56:01;;;;;;;22.80;9.40;;;;;;;12.44;92.04;99912.23;105366;1284;23957;-71
2022/09/30 09:58:33;;;;;;;21.30;8.40;;;;;;;12.46;91.42;99917.14;105448;1278;22549;-71
2022/09/30 10:01:31;;;;;;;29.00;12.00;;;;;;;12.50;91.87;99921.27;105820;1278;22561;-72
2022/09/30 10:04:16;;;;;;;27.00;12.10;;;;;;;12.57;91.94;99923.56;105772;1278;25400;-71
2022/09/30 10:06:52;;;;;;;22.70;10.30;;;;;;;12.62;91.57;99921.81;105881;1278;23488;-72
2022/09/30 10:09:32;;;;;;;23.70;9.10;;;;;;;12.63;91.20;99921.25;105969;1277;22572;-72
2022/09/30 10:12:30;;;;;;;19.80;8.20;;;;;;;12.66;90.95;99925.09;105909;1278;24019;-71
2022/09/30 10:15:15;;;;;;;20.70;6.60;;;;;;;12.71;90.80;99930.77;105797;1278;24173;-71
2022/09/30 10:17:53;;;;;;;19.40;7.30;;;;;;;12.75;90.73;99931.80;105809;1279;25257;-71
2022/09/30 10:20:30;;;;;;;19.10;7.10;;;;;;;12.79;90.81;99928.92;105858;1279;25328;-71
2022/09/30 10:23:18;;;;;;;25.70;8.30;;;;;;;12.85;90.65;99928.30;105914;1279;25342;-72
2022/09/30 10:26:02;;;;;;;19.40;7.50;;;;;;;12.92;90.60;99928.89;105794;1279;22619;-72
2022/09/30 10:28:44;;;;;;;19.50;7.70;;;;;;;13.00;90.84;99926.02;106012;1279;22837;-72
2022/09/30 10:31:23;;;;;;;18.50;7.10;;;;;;;13.07;90.07;99922.05;105794;1278;22629;-71
2022/09/30 10:34:00;;;;;;;17.50;6.80;;;;;;;13.12;89.69;99923.86;105851;1278;23005;-71
2022/09/30 10:36:35;;;;;;;23.00;10.40;;;;;;;13.18;89.67;99926.67;105902;1279;24299;-71
2022/09/30 10:39:08;;;;;;;18.40;7.60;;;;;;;13.23;89.07;99924.90;105886;1278;22547;-71
2022/09/30 10:41:40;;;;;;;17.90;6.10;;;;;;;13.29;88.97;99924.52;105806;1279;24301;-71
2022/09/30 10:44:20;;;;;;;14.90;5.20;;;;;;;13.33;88.40;99919.19;105762;1278;25304;-71
2022/09/30 10:46:59;;;;;;;15.20;6.00;;;;;;;13.38;88.52;99921.64;105685;1278;292350;-71
2022/09/30 10:49:36;;;;;;;19.40;7.10;;;;;;;13.40;87.96;99922.15;105784;1279;22563;-70
2022/09/30 10:52:17;;;;;;;17.20;7.00;;;;;;;13.41;87.62;99924.30;105919;1278;22549;-70
2022/09/30 10:54:53;;;;;;;21.90;6.70;;;;;;;13.44;87.64;99929.30;105877;1279;25518;-71
2022/09/30 10:57:27;;;;;;;17.60;5.80;;;;;;;13.51;88.00;99932.13;106137;1279;23890;-71
2022/09/30 11:00:04;;;;;;;21.50;6.20;;;;;;;13.56;87.40;99933.05;106007;1278;25541;-73
2022/09/30 11:02:41;;;;;;;17.30;4.80;;;;;;;13.59;86.64;99932.69;106717;1279;22480;-71
2022/09/30 11:05:18;;;;;;;14.30;4.10;;;;;;;13.57;86.15;99929.84;106392;1279;22586;-73
2022/09/30 11:07:57;;;;;;;14.70;3.60;;;;;;;13.59;86.29;99931.88;105997;1278;22754;-72
2022/09/30 11:10:46;;;;;;;9.60;2.80;;;;;;;13.61;86.00;99930.67;105720;1279;22585;-70
2022/09/30 11:13:24;;;;;;;10.10;3.40;;;;;;;13.62;85.36;99925.31;105805;1278;22554;-73
2022/09/30 11:16:03;;;;;;;11.30;3.10;;;;;;;13.64;85.79;99920.67;105806;1279;24309;-72
2022/09/30 11:18:43;;;;;;;15.60;4.30;;;;;;;13.68;85.48;99918.17;105806;1278;22703;-71
2022/09/30 11:21:20;;;;;;;13.30;4.30;;;;;;;13.70;85.42;99914.35;105785;1279;26727;-71
2022/09/30 11:23:58;;;;;;;11.70;3.50;;;;;;;13.73;84.96;99914.61;105781;1278;22603;-72
2022/09/30 11:26:43;;;;;;;10.80;3.00;;;;;;;13.74;84.33;99914.36;105856;1279;22585;-71
2022/09/30 11:29:36;;;;;;;14.30;4.00;;;;;;;13.75;84.44;99908.80;105796;1278;22782;-71
2022/09/30 11:32:23;;;;;;;8.70;2.40;;;;;;;13.77;83.93;99916.00;105880;1279;22561;-71
2022/09/30 11:35:05;;;;;;;10.10;2.60;;;;;;;13.76;83.04;99921.60;105691;1279;22636;-71
2022/09/30 11:37:54;;;;;;;6.80;1.70;;;;;;;13.75;82.54;99917.52;105722;1278;22533;-71
2022/09/30 11:40:38;;;;;;;7.20;2.00;;;;;;;13.75;82.42;99916.45;105766;1278;25242;-71
2022/09/30 11:43:22;;;;;;;8.60;2.10;;;;;;;13.77;82.18;99919.57;105840;1279;22629;-71
2022/09/30 11:46:15;;;;;;;7.30;2.10;;;;;;;13.81;82.53;99917.48;105798;1278;26182;-72
2022/09/30 11:49:05;;;;;;;7.40;1.80;;;;;;;13.88;82.18;99919.11;105733;1279;22568;-70
2022/09/30 11:51:47;;;;;;;9.50;2.00;;;;;;;13.93;82.11;99920.03;105800;1278;24265;-73
2022/09/30 11:54:35;;;;;;;12.90;1.80;;;;;;;13.99;81.45;99923.09;105862;1278;24342;-70
2022/09/30 11:57:14;;;;;;;5.50;1.40;;;;;;;14.05;80.47;99926.00;105786;1279;22719;-73
2022/09/30 11:59:47;;;;;;;;;;;;;;;14.11;80.41;99927.44;105792;1278;24282;-71